METAR AND TAF INFORMATION
METAR FOR LYPG
ADDS - METARS form results

(2049 UTC 19 July 2018)
Data provider http://aviationweather.gov/adds/metars/
 
METAR text: LYPG 192030Z 34006KT 9999 FEW040 26/11 Q1011 NOSIG
Conditions at: LYPG (PODGORICA(TITOGR, CS) observed 2030 UTC 19 July 2018
Temperature: 26.0°C (79°F)
Dewpoint: 11.0°C (52°F) [RH = 39%]
Pressure (altimeter): 29.85 inches Hg (1011.0 mb)
Winds: from the NNW (340 degrees) at 7 MPH (6 knots; 3.1 m/s)
Visibility: 6 or more miles (10+ km)
Ceiling: at least 12,000 feet AGL
Clouds: few clouds at 4000 feet AGL
Weather: no significant weather observed at this time

METAR text: LYPG 192000Z 35005KT 290V030 9999 FEW040 SCT090 27/11 Q1011 NOSIG
Conditions at: LYPG (PODGORICA(TITOGR, CS) observed 2000 UTC 19 July 2018
Temperature: 27.0°C (81°F)
Dewpoint: 11.0°C (52°F) [RH = 37%]
Pressure (altimeter): 29.85 inches Hg (1011.0 mb)
Winds: from the N (350 degrees) at 6 MPH (5 knots; 2.6 m/s)
Visibility: 6 or more miles (10+ km)
Ceiling: at least 12,000 feet AGL
Clouds: few clouds at 4000 feet AGL
scattered clouds at 9000 feet AGL
Weather: no significant weather observed at this time

Forecast for: LYPG (PODGORICA(TITOGR, CS)
Text: TAF LYPG 191700Z 1918/2018 36009KT 9999 SCT040 TX34/2013Z TN21/2003Z
Forecast period: 1800 UTC 19 July 2018 to 1800 UTC 20 July 2018
Forecast type: FROM: standard forecast or significant change
Winds: from the N (360 degrees) at 10 MPH (9 knots; 4.7 m/s)
Visibility: 6 or more miles (10+ km)
Clouds: scattered clouds at 4000 feet AGL
Weather: no significant weather forecast for this period

 AIRPORT MAP

 RUNWAY INFORMATION
Runway 08 Runway length 7145 ft Runway width 50 ft
Runway elevation 0 ft Runway displaced threshold 0 ft Runway heading 86
Runway 26 Runway length 7145 ft Runway width 50 ft
Runway elevation 0 ft Runway displaced threshold 0 ft Runway heading 266
Runway 18 Runway length 8202 ft Runway width 148 ft
Runway elevation 118 ft Runway displaced threshold 0 ft Runway heading 184
Runway 36 Runway length 8202 ft Runway width 148 ft
Runway elevation 82 ft Runway displaced threshold 0 ft Runway heading 4

 AIRPORT FREQUENCIES
Type APP Name APP Frequency 118.7 MHZ
Type TWR Name TWR Frequency 118.2 MHZ

 AIRPORT NEAR NAVIGATION AIDS
Type NDB Name Podgorica Frequency 312 KHZ
Type VOR-DME Name Podgorica Frequency 113000 KHZ
Type NDB Name Podgorica Frequency 335 KHZ


... ... ... ... ... ...

© Copyright 2017 All Rights Reserved. Virtual NATO is in no way affiliated with NATO or any of the NATO Members

NATO Virtual is a volunteer not for profit group of friends with the common interest in promoting enjoyment and education through the simulation of military operations and procedure through the use of operating standards within several flight simulation platforms.

Powered by Virtual Airlines Manager [v2.6.2] Customized by Virtual NATO